Time;durP1;ratioP1;P1;durP2;ratioP2;P2;SDS_P1;SDS_P2;PMS_P1;PMS_P2;Temp;Humidity;BMP_temperature;BMP_pressure;BME280_temperature;BME280_humidity;BME280_pressure;Samples;Min_cycle;Max_cycle;Signal;HPM_P1;HPM_P2
2021/05/03 00:01:40;;;;;;;2.90;2.70;;;9.00;71.40;;;;;;5040929;28;20207;-71
2021/05/03 00:04:06;;;;;;;2.80;2.60;;;9.00;72.10;;;;;;5018295;28;20702;-71
2021/05/03 00:06:32;;;;;;;2.67;2.47;;;9.10;71.40;;;;;;5063024;28;20693;-71
2021/05/03 00:08:57;;;;;;;2.67;2.20;;;9.00;71.40;;;;;;5050981;28;20216;-72
2021/05/03 00:11:23;;;;;;;4.33;3.00;;;9.00;71.40;;;;;;5048333;28;20279;-71
2021/05/03 00:13:48;;;;;;;2.60;2.40;;;9.00;71.40;;;;;;5046093;28;20211;-72
2021/05/03 00:16:14;;;;;;;2.40;2.20;;;9.00;71.60;;;;;;5089063;28;20261;-71
2021/05/03 00:18:40;;;;;;;2.77;2.57;;;8.90;71.50;;;;;;5063356;28;20222;-71
2021/05/03 00:21:05;;;;;;;3.37;2.90;;;8.90;71.40;;;;;;5061460;28;20311;-72
2021/05/03 00:23:31;;;;;;;2.50;2.30;;;8.90;71.60;;;;;;5038387;28;20233;-71
2021/05/03 00:25:57;;;;;;;3.33;2.40;;;8.90;71.50;;;;;;5017238;28;20606;-71
2021/05/03 00:28:23;;;;;;;3.30;3.00;;;8.90;71.60;;;;;;5067200;28;20211;-71
2021/05/03 00:30:49;;;;;;;2.97;2.33;;;8.90;71.60;;;;;;5046544;28;20227;-72
2021/05/03 00:33:14;;;;;;;2.50;2.30;;;8.90;72.50;;;;;;5069182;28;20219;-71
2021/05/03 00:35:40;;;;;;;3.60;2.53;;;8.80;71.80;;;;;;5060625;28;20460;-72
2021/05/03 00:38:06;;;;;;;3.40;3.00;;;8.80;71.70;;;;;;5069765;28;20227;-72
2021/05/03 00:40:32;;;;;;;2.93;2.67;;;8.70;71.90;;;;;;5068218;28;20226;-72
2021/05/03 00:42:58;;;;;;;4.83;2.67;;;8.70;72.80;;;;;;5048028;28;20705;-72
2021/05/03 00:45:24;;;;;;;2.87;2.63;;;8.60;72.10;;;;;;5052859;28;20449;-71
2021/05/03 00:47:50;;;;;;;3.13;2.83;;;8.60;72.10;;;;;;5047777;28;20461;-71
2021/05/03 00:50:18;;;;;;;2.80;2.43;;;8.60;72.40;;;;;;5053886;28;20262;-71
2021/05/03 00:52:44;;;;;;;2.90;2.40;;;8.50;72.50;;;;;;5051723;28;20521;-72
2021/05/03 00:55:11;;;;;;;3.00;2.50;;;8.50;72.50;;;;;;5047651;28;20541;-71
2021/05/03 00:57:38;;;;;;;3.47;2.63;;;8.40;72.60;;;;;;5049222;28;20472;-72
2021/05/03 01:00:07;;;;;;;2.93;2.57;;;8.40;72.60;;;;;;5054681;28;20453;-71
2021/05/03 01:02:33;;;;;;;3.03;2.57;;;8.40;72.50;;;;;;5022102;28;20465;-72
2021/05/03 01:04:59;;;;;;;3.13;2.47;;;8.40;72.70;;;;;;5068845;28;20465;-72
2021/05/03 01:07:24;;;;;;;2.70;2.50;;;8.40;72.70;;;;;;5051732;28;20234;-70
2021/05/03 01:09:50;;;;;;;2.53;2.27;;;8.40;73.00;;;;;;5024153;28;20287;-72
2021/05/03 01:12:16;;;;;;;2.70;2.43;;;8.30;72.80;;;;;;5053736;28;20222;-71
2021/05/03 01:14:42;;;;;;;3.17;2.87;;;8.30;73.30;;;;;;5052331;28;20298;-72
2021/05/03 01:17:08;;;;;;;3.33;2.47;;;8.30;73.10;;;;;;5059850;28;20227;-71
2021/05/03 01:19:33;;;;;;;2.97;2.50;;;8.20;73.30;;;;;;5066363;28;21023;-71
2021/05/03 01:21:59;;;;;;;2.33;2.13;;;8.20;73.90;;;;;;5065267;28;20311;-72
2021/05/03 01:24:25;;;;;;;2.60;2.40;;;8.10;73.60;;;;;;5049264;28;20777;-71
2021/05/03 01:26:51;;;;;;;2.87;2.33;;;8.20;73.60;;;;;;5082129;28;20247;-71
2021/05/03 01:29:17;;;;;;;2.90;2.70;;;8.10;73.70;;;;;;5049624;28;20265;-72
2021/05/03 01:31:49;;;;;;;2.60;2.23;;;8.10;73.80;;;;;;5079055;28;20208;-71
2021/05/03 01:34:15;;;;;;;2.87;2.47;;;8.10;73.80;;;;;;5045057;28;20451;-72
2021/05/03 01:36:43;;;;;;;2.73;2.33;;;8.10;74.10;;;;;;5044726;28;20462;-71
2021/05/03 01:39:11;;;;;;;2.10;2.00;;;8.10;73.90;;;;;;5068666;28;20469;-71
2021/05/03 01:41:37;;;;;;;2.57;2.40;;;8.10;74.90;;;;;;5045368;28;20441;-72
2021/05/03 01:44:04;;;;;;;3.20;2.80;;;8.00;74.40;;;;;;5062656;28;20449;-72
2021/05/03 01:46:33;;;;;;;2.40;2.20;;;8.00;74.50;;;;;;5048147;28;20441;-71
2021/05/03 01:48:59;;;;;;;2.83;2.60;;;7.90;74.70;;;;;;5048265;28;20518;-72
2021/05/03 01:51:26;;;;;;;3.57;3.07;;;7.80;74.80;;;;;;5065710;28;20449;-72
2021/05/03 01:53:52;;;;;;;2.57;2.37;;;7.80;75.00;;;;;;5051825;28;20520;-70
2021/05/03 01:56:18;;;;;;;3.47;2.53;;;7.80;75.00;;;;;;5070524;28;20528;-72
2021/05/03 01:58:44;;;;;;;2.90;2.70;;;7.70;75.40;;;;;;5083689;28;20212;-70
2021/05/03 02:01:09;;;;;;;2.90;2.63;;;7.70;75.30;;;;;;5061084;28;20230;-72
2021/05/03 02:03:36;;;;;;;3.87;2.77;;;7.80;75.20;;;;;;5063211;28;20261;-71
2021/05/03 02:06:03;;;;;;;3.37;3.07;;;7.70;75.60;;;;;;5081891;28;20210;-73
2021/05/03 02:08:29;;;;;;;3.23;2.47;;;7.70;75.40;;;;;;5075857;28;20455;-71
2021/05/03 02:10:55;;;;;;;3.20;2.80;;;7.70;75.60;;;;;;5065711;28;21010;-71
2021/05/03 02:13:22;;;;;;;2.60;2.37;;;7.70;75.80;;;;;;5097131;28;20576;-71
2021/05/03 02:15:49;;;;;;;2.57;2.37;;;7.70;75.80;;;;;;5033276;28;20219;-71
2021/05/03 02:18:15;;;;;;;2.60;2.40;;;7.70;75.70;;;;;;5073276;28;20460;-72
2021/05/03 02:21:04;;;;;;;2.53;2.33;;;7.60;75.60;;;;;;5046085;28;20533;-71
2021/05/03 02:23:30;;;;;;;2.83;2.60;;;7.70;75.40;;;;;;5034899;28;20484;-73
2021/05/03 02:25:55;;;;;;;3.07;2.57;;;7.70;75.50;;;;;;5048474;28;20449;-71
2021/05/03 02:28:21;;;;;;;2.63;2.40;;;7.60;76.20;;;;;;5044663;28;20315;-71
2021/05/03 02:31:03;;;;;;;3.73;2.87;;;7.60;75.50;;;;;;5044292;28;20323;-72
2021/05/03 02:33:29;;;;;;;5.27;3.13;;;7.60;75.70;;;;;;5061294;28;20321;-72
2021/05/03 02:35:55;;;;;;;3.07;2.77;;;7.60;75.60;;;;;;5059399;28;20516;-71
2021/05/03 02:38:21;;;;;;;3.40;2.87;;;7.60;75.80;;;;;;5065791;28;20876;-72
2021/05/03 02:40:47;;;;;;;2.87;2.67;;;7.50;75.70;;;;;;5067604;28;20228;-71
2021/05/03 02:43:12;;;;;;;6.13;3.50;;;7.50;76.00;;;;;;5044770;28;20280;-71
2021/05/03 02:45:38;;;;;;;3.70;3.10;;;7.50;76.00;;;;;;5084968;28;20275;-71
2021/05/03 02:48:04;;;;;;;3.10;2.80;;;7.40;76.00;;;;;;5034411;28;20253;-71
2021/05/03 02:50:30;;;;;;;6.63;3.47;;;7.40;75.90;;;;;;5065527;28;20247;-71
2021/05/03 02:52:56;;;;;;;3.20;2.90;;;7.40;76.20;;;;;;5056623;28;21009;-72
2021/05/03 02:55:23;;;;;;;3.30;2.77;;;7.30;76.10;;;;;;5037575;28;20233;-71
2021/05/03 02:57:50;;;;;;;4.03;3.00;;;7.30;76.50;;;;;;5021784;28;20458;-71
2021/05/03 03:00:28;;;;;;;2.80;2.60;;;7.30;76.30;;;;;;5021089;28;20458;-71
2021/05/03 03:02:54;;;;;;;2.97;2.70;;;7.30;76.20;;;;;;5038803;28;20464;-71
2021/05/03 03:05:20;;;;;;;4.23;2.73;;;7.30;76.10;;;;;;5039994;28;20454;-73
2021/05/03 03:07:45;;;;;;;3.33;3.03;;;7.30;76.30;;;;;;5035121;28;20466;-71
2021/05/03 03:10:11;;;;;;;3.33;2.50;;;7.30;76.40;;;;;;5051837;28;20243;-71
2021/05/03 03:12:37;;;;;;;3.23;2.93;;;7.30;76.30;;;;;;5054553;28;20223;-72
2021/05/03 03:15:05;;;;;;;3.40;3.03;;;7.20;76.60;;;;;;5028830;28;20463;-71
2021/05/03 03:17:30;;;;;;;3.50;3.20;;;7.20;76.50;;;;;;5044739;28;20241;-72
2021/05/03 03:19:56;;;;;;;3.73;3.10;;;7.20;76.50;;;;;;5072293;28;21310;-72
2021/05/03 03:22:22;;;;;;;3.07;2.40;;;7.20;76.60;;;;;;5054293;28;20308;-72
2021/05/03 03:24:48;;;;;;;2.73;2.53;;;7.20;76.70;;;;;;5054604;28;20310;-71
2021/05/03 03:27:14;;;;;;;2.70;2.50;;;7.20;76.60;;;;;;5070474;28;20469;-71
2021/05/03 03:29:39;;;;;;;2.73;2.53;;;7.20;76.60;;;;;;5071791;28;20289;-72
2021/05/03 03:32:05;;;;;;;8.23;4.83;;;7.20;76.50;;;;;;5079291;28;20226;-71
2021/05/03 03:34:31;;;;;;;5.40;4.03;;;7.20;76.50;;;;;;5067017;28;20247;-72
2021/05/03 03:36:56;;;;;;;6.60;3.70;;;7.10;76.50;;;;;;5074386;28;20464;-72
2021/05/03 03:39:22;;;;;;;6.60;4.13;;;7.10;76.60;;;;;;5071384;28;20214;-70
2021/05/03 03:41:48;;;;;;;4.10;3.70;;;7.10;76.60;;;;;;5044981;28;20298;-71
2021/05/03 03:44:13;;;;;;;4.60;3.60;;;7.10;76.60;;;;;;5016156;28;20307;-71
2021/05/03 03:46:39;;;;;;;3.83;3.37;;;7.00;76.70;;;;;;5072799;28;20236;-72
2021/05/03 03:49:05;;;;;;;5.20;3.73;;;7.00;76.90;;;;;;5058737;28;20220;-72
2021/05/03 03:51:31;;;;;;;3.60;3.30;;;6.90;76.60;;;;;;5050416;28;20699;-70
2021/05/03 03:53:56;;;;;;;3.50;3.07;;;6.90;76.70;;;;;;5050339;28;20230;-71
2021/05/03 03:56:23;;;;;;;6.73;3.27;;;6.90;76.90;;;;;;5068661;28;20226;-71
2021/05/03 03:58:50;;;;;;;3.67;2.80;;;6.90;76.90;;;;;;5068670;28;20222;-70
2021/05/03 04:01:16;;;;;;;6.43;3.43;;;6.90;77.00;;;;;;5090075;28;20441;-72
2021/05/03 04:03:47;;;;;;;3.93;3.50;;;6.80;77.10;;;;;;5056993;28;20468;-72
2021/05/03 04:09:18;;;;;;;3.10;2.80;;;6.80;77.20;;;;;;5091018;28;20459;-72
2021/05/03 04:25:16;;;;;;;3.03;2.67;;;6.80;77.30;;;;;;5057199;28;20536;-70
2021/05/03 04:27:42;;;;;;;5.40;3.00;;;6.80;77.70;;;;;;5003104;28;20542;-72
2021/05/03 04:30:11;;;;;;;3.53;2.73;;;6.80;77.60;;;;;;5074281;28;20464;-72
2021/05/03 04:32:38;;;;;;;4.30;3.00;;;6.70;77.50;;;;;;5066504;28;20441;-72
2021/05/03 04:35:04;;;;;;;3.20;2.90;;;6.70;77.70;;;;;;5039588;28;20883;-71
2021/05/03 04:37:30;;;;;;;4.13;3.57;;;6.70;77.70;;;;;;5068480;28;20799;-71
2021/05/03 04:39:56;;;;;;;6.67;4.70;;;6.70;77.70;;;;;;5060728;28;20460;-72
2021/05/03 04:42:22;;;;;;;9.40;6.13;;;6.70;77.50;;;;;;5055583;28;20452;-70
2021/05/03 04:44:48;;;;;;;19.63;7.00;;;6.70;77.60;;;;;;5046970;28;20227;-71
2021/05/03 04:47:13;;;;;;;13.77;5.50;;;6.80;77.20;;;;;;5060475;28;20231;-71
2021/05/03 04:49:39;;;;;;;10.13;5.27;;;6.80;77.30;;;;;;5086267;28;20246;-73
2021/05/03 04:52:05;;;;;;;6.70;5.27;;;6.80;77.20;;;;;;5077290;28;20673;-71
2021/05/03 04:54:31;;;;;;;5.13;4.20;;;6.80;77.50;;;;;;5036350;28;20219;-72
2021/05/03 04:56:56;;;;;;;6.13;4.37;;;6.80;77.70;;;;;;5052556;28;20221;-70
2021/05/03 04:59:22;;;;;;;17.77;9.17;;;6.80;78.10;;;;;;5053618;28;20210;-68
2021/05/03 05:01:47;;;;;;;31.70;15.30;;;6.80;77.80;;;;;;5047396;28;20210;-72
2021/05/03 05:04:13;;;;;;;25.63;13.33;;;6.80;77.50;;;;;;5064071;28;20280;-70
2021/05/03 05:06:39;;;;;;;30.60;13.90;;;6.80;77.50;;;;;;5023151;28;20579;-70
2021/05/03 05:09:06;;;;;;;17.23;9.47;;;6.80;77.40;;;;;;5072075;28;20584;-71
2021/05/03 05:11:32;;;;;;;7.40;5.30;;;6.90;77.60;;;;;;5039254;28;20244;-71
2021/05/03 05:13:58;;;;;;;6.50;4.97;;;6.80;77.50;;;;;;5055875;28;20535;-72
2021/05/03 05:16:24;;;;;;;6.53;3.37;;;6.90;77.50;;;;;;5052030;28;20222;-71
2021/05/03 05:18:50;;;;;;;4.30;3.70;;;6.90;77.80;;;;;;5061394;28;20445;-71
2021/05/03 05:21:16;;;;;;;5.60;3.23;;;6.90;78.10;;;;;;5054877;28;21051;-72
2021/05/03 05:23:41;;;;;;;5.30;3.93;;;6.90;78.10;;;;;;5072663;28;20631;-71
2021/05/03 05:26:08;;;;;;;5.83;4.23;;;6.90;78.10;;;;;;5065743;28;20225;-72
2021/05/03 05:28:34;;;;;;;7.30;4.70;;;7.00;78.40;;;;;;5031228;28;20602;-71
2021/05/03 05:31:00;;;;;;;5.97;3.87;;;7.00;78.50;;;;;;5089131;28;20552;-72
2021/05/03 05:33:26;;;;;;;5.43;3.97;;;7.00;78.60;;;;;;5086230;28;20504;-72
2021/05/03 05:35:52;;;;;;;4.50;4.10;;;7.00;79.10;;;;;;5044507;28;20487;-70
2021/05/03 05:38:17;;;;;;;4.80;4.10;;;7.00;79.20;;;;;;5060100;28;20235;-72
2021/05/03 05:40:44;;;;;;;6.87;5.10;;;7.00;79.40;;;;;;5053956;28;20219;-72
2021/05/03 05:43:10;;;;;;;7.20;5.50;;;7.10;79.50;;;;;;5072292;28;20603;-71
2021/05/03 05:45:36;;;;;;;8.17;5.50;;;7.10;79.90;;;;;;5044006;28;20480;-71
2021/05/03 05:48:02;;;;;;;11.60;5.87;;;7.10;80.20;;;;;;5050566;28;20248;-72
2021/05/03 05:50:28;;;;;;;9.03;7.10;;;7.00;80.90;;;;;;5052501;28;20291;-71
2021/05/03 05:52:55;;;;;;;8.70;5.80;;;7.00;81.90;;;;;;5067111;28;20466;-71
2021/05/03 05:55:21;;;;;;;11.63;7.40;;;6.90;81.60;;;;;;5035443;28;20576;-71
2021/05/03 05:57:46;;;;;;;9.67;5.87;;;6.90;81.70;;;;;;5040317;28;20499;-71
2021/05/03 06:00:13;;;;;;;6.77;4.53;;;6.90;82.20;;;;;;5064234;28;20219;-72
2021/05/03 06:02:42;;;;;;;8.93;5.20;;;7.00;82.10;;;;;;5056086;28;20261;-71
2021/05/03 06:05:10;;;;;;;9.00;4.87;;;7.00;81.90;;;;;;5083807;28;20457;-72
2021/05/03 06:07:35;;;;;;;6.30;4.50;;;7.00;82.80;;;;;;5073619;28;20211;-72
2021/05/03 06:10:01;;;;;;;6.63;4.63;;;7.10;82.80;;;;;;5055258;28;20503;-71
2021/05/03 06:12:27;;;;;;;4.40;4.00;;;7.10;82.80;;;;;;5058367;28;20210;-71
2021/05/03 06:14:53;;;;;;;6.70;4.80;;;7.20;82.60;;;;;;5044227;28;20584;-73
2021/05/03 06:17:20;;;;;;;6.63;5.40;;;7.20;83.30;;;;;;5066378;28;20223;-72
2021/05/03 06:19:46;;;;;;;8.77;6.37;;;7.10;84.10;;;;;;5058609;28;20457;-71
2021/05/03 06:22:12;;;;;;;8.40;4.17;;;7.20;83.90;;;;;;5058639;28;20864;-71
2021/05/03 06:24:37;;;;;;;5.60;5.03;;;7.20;84.40;;;;;;5069089;28;20219;-71
2021/05/03 06:27:03;;;;;;;5.00;4.27;;;7.20;84.90;;;;;;5041245;28;20461;-71
2021/05/03 06:29:29;;;;;;;4.43;4.03;;;7.20;85.10;;;;;;5058701;28;20237;-71
2021/05/03 06:31:57;;;;;;;3.53;3.23;;;7.20;84.90;;;;;;5041853;28;20445;-72
2021/05/03 06:34:23;;;;;;;4.93;4.07;;;7.30;85.00;;;;;;5067203;28;20288;-73
2021/05/03 06:36:49;;;;;;;4.00;3.13;;;7.40;85.30;;;;;;5080879;28;21000;-71
2021/05/03 06:39:15;;;;;;;5.83;3.50;;;7.50;85.40;;;;;;5036015;28;20684;-71
2021/05/03 06:41:41;;;;;;;6.83;4.27;;;7.50;85.30;;;;;;5034353;28;20447;-71
2021/05/03 06:44:07;;;;;;;5.53;3.73;;;7.60;85.30;;;;;;5066407;28;20220;-71
2021/05/03 06:46:33;;;;;;;4.90;4.20;;;7.60;86.40;;;;;;5041501;28;20444;-71
2021/05/03 06:48:59;;;;;;;6.13;4.70;;;7.70;86.10;;;;;;5052131;28;20211;-72
2021/05/03 06:51:24;;;;;;;5.17;4.33;;;7.70;86.20;;;;;;5075746;28;20453;-71
2021/05/03 06:53:50;;;;;;;4.87;4.37;;;7.80;86.20;;;;;;5019144;28;20218;-72
2021/05/03 06:56:16;;;;;;;6.17;4.27;;;7.90;86.30;;;;;;5069165;28;20260;-71
2021/05/03 06:58:41;;;;;;;3.93;3.63;;;8.00;86.00;;;;;;5074670;28;20285;-72
2021/05/03 07:01:07;;;;;;;5.50;3.73;;;8.00;86.40;;;;;;5056229;28;20237;-72
2021/05/03 07:03:32;;;;;;;6.50;4.07;;;8.10;86.80;;;;;;5036110;28;20313;-71
2021/05/03 07:05:58;;;;;;;5.33;3.60;;;8.10;86.80;;;;;;5083200;28;20242;-72
2021/05/03 07:08:24;;;;;;;4.43;4.03;;;8.20;86.80;;;;;;5057616;28;20288;-71
2021/05/03 07:10:52;;;;;;;5.60;4.40;;;8.30;87.20;;;;;;5074648;28;20249;-72
2021/05/03 07:13:19;;;;;;;7.80;4.93;;;8.30;87.30;;;;;;5077084;28;20481;-71
2021/05/03 07:15:45;;;;;;;6.03;4.73;;;8.40;87.40;;;;;;5072516;28;20972;-71
2021/05/03 07:18:11;;;;;;;4.60;4.20;;;8.40;87.70;;;;;;5053777;28;20487;-71
2021/05/03 07:20:38;;;;;;;5.37;4.20;;;8.50;87.50;;;;;;5060608;28;20486;-71
2021/05/03 07:23:05;;;;;;;4.30;3.87;;;8.60;87.90;;;;;;5056805;28;20235;-71
2021/05/03 07:25:30;;;;;;;3.77;3.43;;;8.70;87.40;;;;;;5053772;28;20448;-72
2021/05/03 07:27:56;;;;;;;4.70;4.30;;;8.70;87.90;;;;;;5035780;28;20462;-72
2021/05/03 07:30:22;;;;;;;3.73;3.23;;;8.80;87.90;;;;;;5033418;28;20242;-71
2021/05/03 07:32:47;;;;;;;5.40;3.40;;;8.90;88.60;;;;;;5071918;28;20215;-71
2021/05/03 07:35:19;;;;;;;6.07;4.07;;;9.00;88.70;;;;;;5036814;28;20211;-72
2021/05/03 07:37:46;;;;;;;4.50;4.10;;;9.10;89.00;;;;;;5087969;28;20219;-72
2021/05/03 07:40:12;;;;;;;4.70;4.20;;;9.20;88.80;;;;;;5052285;28;20458;-72
2021/05/03 07:42:38;;;;;;;8.80;5.00;;;9.30;88.60;;;;;;5052620;28;20518;-71
2021/05/03 07:45:04;;;;;;;6.00;4.37;;;9.30;88.80;;;;;;5071170;28;20203;-71
2021/05/03 07:47:30;;;;;;;8.70;5.80;;;9.40;88.90;;;;;;5040140;28;20244;-71
2021/05/03 07:49:58;;;;;;;10.83;6.70;;;9.50;88.80;;;;;;5073510;28;20477;-71
2021/05/03 07:52:24;;;;;;;157.00;66.00;;;9.60;88.80;;;;;;5067865;28;20204;-72
2021/05/03 07:54:50;;;;;;;28.80;15.77;;;9.60;89.00;;;;;;5057942;28;20445;-72
2021/05/03 07:57:15;;;;;;;21.40;13.50;;;9.70;88.80;;;;;;5056296;28;20222;-72
2021/05/03 07:59:41;;;;;;;110.70;64.53;;;9.80;89.20;;;;;;5049647;28;20229;-70
2021/05/03 08:02:07;;;;;;;59.70;29.20;;;9.90;89.00;;;;;;5066860;28;20230;-69
2021/05/03 08:04:33;;;;;;;20.07;12.73;;;10.00;88.00;;;;;;5040787;28;20706;-71
2021/05/03 08:07:00;;;;;;;17.97;9.93;;;10.10;87.20;;;;;;5018780;28;20458;-70
2021/05/03 08:09:27;;;;;;;12.17;8.00;;;10.20;86.70;;;;;;5069702;28;20476;-69
2021/05/03 08:11:54;;;;;;;11.00;7.30;;;10.20;86.70;;;;;;5066301;28;20441;-69
2021/05/03 08:14:22;;;;;;;10.80;7.30;;;10.30;86.50;;;;;;5059059;28;20444;-68
2021/05/03 08:16:50;;;;;;;14.20;7.93;;;10.40;86.20;;;;;;5088085;28;20462;-68
2021/05/03 08:19:17;;;;;;;15.47;8.67;;;10.40;85.30;;;;;;5089182;28;20441;-69
2021/05/03 08:21:43;;;;;;;10.50;5.87;;;10.50;86.20;;;;;;5064651;28;20444;-71
2021/05/03 08:24:09;;;;;;;10.07;6.57;;;10.60;86.20;;;;;;5055738;28;20501;-69
2021/05/03 08:26:34;;;;;;;11.30;6.97;;;10.70;85.50;;;;;;5046202;28;20216;-70
2021/05/03 08:29:01;;;;;;;7.03;5.33;;;10.80;86.20;;;;;;5044197;28;20218;-70
2021/05/03 08:31:27;;;;;;;9.00;5.30;;;10.90;85.50;;;;;;5065849;28;20635;-68
2021/05/03 08:33:52;;;;;;;7.33;5.10;;;11.10;85.70;;;;;;5031972;28;21010;-69
2021/05/03 08:36:18;;;;;;;5.20;4.20;;;11.20;85.90;;;;;;5034539;28;20357;-69
2021/05/03 08:38:44;;;;;;;6.23;5.13;;;11.30;86.30;;;;;;5033125;28;20247;-69
2021/05/03 08:41:13;;;;;;;5.63;4.37;;;11.50;85.80;;;;;;5015954;28;20257;-69
2021/05/03 08:43:41;;;;;;;7.17;4.20;;;11.60;84.60;;;;;;4995996;28;20217;-70
2021/05/03 08:46:09;;;;;;;4.80;4.00;;;11.90;83.60;;;;;;4999764;28;20479;-69
2021/05/03 08:48:47;;;;;;;6.43;4.60;;;12.00;83.50;;;;;;5021084;28;20493;-70
2021/05/03 08:51:28;;;;;;;5.90;4.90;;;12.20;83.70;;;;;;5005111;28;20476;-69
2021/05/03 08:54:02;;;;;;;6.07;4.30;;;12.20;85.20;;;;;;5064043;28;20477;-69
2021/05/03 08:56:28;;;;;;;6.10;4.20;;;12.30;82.90;;;;;;5054896;28;20822;-68
2021/05/03 08:58:53;;;;;;;7.97;4.20;;;12.30;83.60;;;;;;5067962;28;20460;-68
2021/05/03 09:01:21;;;;;;;4.33;3.50;;;12.40;83.50;;;;;;5043794;28;20265;-69
2021/05/03 09:03:51;;;;;;;3.90;3.53;;;12.60;82.00;;;;;;5053051;28;20226;-69
2021/05/03 09:06:17;;;;;;;6.33;3.77;;;12.50;82.80;;;;;;5077496;28;20487;-71
2021/05/03 09:08:42;;;;;;;4.60;3.20;;;12.60;82.80;;;;;;5051242;28;20485;-69
2021/05/03 09:11:14;;;;;;;3.77;3.47;;;12.70;83.90;;;;;;5031503;28;20238;-69
2021/05/03 09:13:41;;;;;;;4.33;3.57;;;12.80;81.40;;;;;;5065377;28;20247;-69
2021/05/03 09:16:23;;;;;;;5.50;3.80;;;13.00;79.10;;;;;;5064426;28;20462;-70
2021/05/03 09:18:53;;;;;;;4.90;3.70;;;13.00;78.50;;;;;;5058399;28;20466;-72
2021/05/03 09:21:30;;;;;;;4.37;3.13;;;12.90;79.10;;;;;;5088003;28;20459;-69
2021/05/03 09:24:09;;;;;;;3.87;3.13;;;13.00;80.50;;;;;;5072948;28;20464;-69
2021/05/03 09:26:40;;;;;;;2.80;2.60;;;13.10;79.70;;;;;;5049185;28;20468;-69
2021/05/03 09:29:24;;;;;;;3.50;3.10;;;13.20;80.50;;;;;;5063434;28;20515;-69
2021/05/03 09:31:58;;;;;;;3.80;3.20;;;13.30;78.70;;;;;;5076367;28;20449;-69
2021/05/03 09:34:31;;;;;;;4.00;3.10;;;13.40;78.70;;;;;;5035320;28;20810;-72
2021/05/03 09:37:34;;;;;;;3.80;2.53;;;13.50;78.70;;;;;;5040376;28;20487;-69
2021/05/03 09:40:18;;;;;;;6.37;3.27;;;13.60;78.70;;;;;;5025679;28;20450;-70
2021/05/03 09:43:02;;;;;;;3.50;3.20;;;13.80;76.50;;;;;;5032157;28;20529;-69
2021/05/03 09:45:30;;;;;;;3.13;2.40;;;13.80;74.20;;;;;;5067831;28;20855;-70
2021/05/03 09:47:58;;;;;;;4.43;3.50;;;13.90;76.00;;;;;;5052179;28;20452;-70
2021/05/03 09:50:27;;;;;;;4.57;3.57;;;14.00;74.80;;;;;;5070551;28;20453;-68
2021/05/03 09:53:10;;;;;;;6.40;3.70;;;14.10;73.70;;;;;;5051894;28;20457;-69
2021/05/03 09:56:09;;;;;;;4.00;3.13;;;14.10;74.20;;;;;;5049263;28;20466;-69
2021/05/03 09:58:37;;;;;;;2.63;2.43;;;14.20;73.80;;;;;;5061158;28;20464;-70
2021/05/03 10:01:03;;;;;;;3.00;2.80;;;14.20;74.00;;;;;;5079532;28;20457;-69
2021/05/03 10:03:35;;;;;;;5.00;3.50;;;14.30;72.60;;;;;;5059077;28;20457;-69
2021/05/03 10:06:02;;;;;;;3.30;3.00;;;14.30;72.00;;;;;;5073513;28;20222;-68
2021/05/03 10:08:28;;;;;;;4.63;3.70;;;14.20;71.30;;;;;;5045353;28;20453;-69
2021/05/03 10:10:57;;;;;;;3.30;3.00;;;14.20;72.20;;;;;;5081780;28;20469;-69
2021/05/03 10:13:23;;;;;;;2.77;2.57;;;14.20;70.50;;;;;;5078869;28;20223;-69
2021/05/03 10:15:50;;;;;;;2.83;2.63;;;14.20;70.80;;;;;;5045293;28;20462;-69
2021/05/03 10:18:20;;;;;;;2.80;2.60;;;14.20;72.40;;;;;;5066522;28;20517;-70
2021/05/03 10:20:46;;;;;;;3.40;3.10;;;14.30;72.00;;;;;;5084148;28;20565;-69
2021/05/03 10:23:13;;;;;;;3.90;3.00;;;14.20;69.40;;;;;;5050120;28;20511;-69
2021/05/03 10:25:41;;;;;;;2.87;2.67;;;14.20;70.70;;;;;;5034724;28;20968;-69
2021/05/03 10:28:08;;;;;;;2.43;2.23;;;14.20;70.30;;;;;;5015842;28;20520;-70
2021/05/03 10:30:41;;;;;;;4.00;2.53;;;14.20;70.50;;;;;;5021005;28;20801;-70
2021/05/03 10:33:10;;;;;;;3.17;2.73;;;14.20;69.50;;;;;;5061513;28;20456;-70
2021/05/03 10:35:41;;;;;;;2.57;2.30;;;14.30;70.40;;;;;;5051523;28;20468;-67
2021/05/03 10:38:30;;;;;;;2.43;2.10;;;14.40;70.50;;;;;;5079970;28;21151;-67
2021/05/03 10:41:21;;;;;;;2.70;2.20;;;14.50;68.80;;;;;;5050241;28;20461;-67
2021/05/03 10:43:47;;;;;;;2.80;1.90;;;14.40;67.70;;;;;;5069729;28;20461;-67
2021/05/03 10:51:58;;;;;;;3.87;2.63;;;14.30;66.60;;;;;;5055344;28;20548;-67
2021/05/03 10:54:27;;;;;;;2.53;2.33;;;14.20;66.10;;;;;;5034738;28;20446;-69
2021/05/03 10:56:53;;;;;;;2.50;2.30;;;14.20;65.70;;;;;;5051670;28;20486;-69
2021/05/03 10:59:20;;;;;;;2.70;2.50;;;14.10;65.60;;;;;;5051100;28;20819;-69
2021/05/03 11:01:51;;;;;;;3.20;2.90;;;14.10;66.00;;;;;;5069771;28;20458;-69
2021/05/03 11:04:28;;;;;;;3.00;2.20;;;14.20;66.80;;;;;;5037429;28;20496;-69
2021/05/03 11:06:57;;;;;;;3.27;2.97;;;14.30;66.90;;;;;;5038151;28;20457;-71
2021/05/03 11:09:27;;;;;;;2.40;2.20;;;14.30;65.70;;;;;;5017586;28;20495;-70
2021/05/03 11:11:54;;;;;;;5.60;3.00;;;14.40;67.00;;;;;;5018232;28;20455;-69
2021/05/03 11:14:21;;;;;;;2.70;2.50;;;14.50;66.90;;;;;;5033988;28;20833;-70
2021/05/03 11:17:09;;;;;;;3.73;2.90;;;14.50;65.90;;;;;;5034038;28;20512;-69
2021/05/03 11:22:26;;;;;;;4.93;2.57;;;14.50;66.90;;;;;;5051903;28;20449;-69
2021/05/03 11:25:08;;;;;;;2.40;2.30;;;14.60;67.20;;;;;;5051427;28;20454;-69
2021/05/03 11:31:39;;;;;;;2.50;1.87;;;14.80;66.30;;;;;;5062448;28;20475;-70
2021/05/03 11:34:17;;;;;;;3.90;2.90;;;15.00;68.30;;;;;;5037454;28;20456;-69
2021/05/03 11:46:38;;;;;;;3.07;2.87;;;15.40;64.00;;;;;;5039700;28;20461;-68
2021/05/03 11:49:10;;;;;;;2.30;2.10;;;15.40;64.20;;;;;;5066769;28;20955;-67
2021/05/03 11:51:55;;;;;;;2.47;2.27;;;15.50;65.20;;;;;;5031938;28;21027;-67
2021/05/03 11:54:30;;;;;;;3.20;2.40;;;15.50;65.40;;;;;;5027234;28;20482;-68
2021/05/03 11:57:01;;;;;;;2.40;2.20;;;15.60;64.30;;;;;;5021431;28;20595;-67
2021/05/03 11:59:27;;;;;;;6.70;3.20;;;15.70;65.50;;;;;;5032990;28;20454;-69
2021/05/03 12:01:58;;;;;;;4.10;3.10;;;15.80;64.80;;;;;;5034727;28;20454;-67
2021/05/03 12:04:41;;;;;;;3.50;2.47;;;15.80;64.70;;;;;;5053240;28;20452;-67
2021/05/03 12:07:30;;;;;;;3.23;2.87;;;15.80;64.60;;;;;;5040712;28;20970;-67
2021/05/03 12:10:08;;;;;;;3.27;3.00;;;16.00;66.00;;;;;;5052847;28;20469;-67
2021/05/03 12:12:53;;;;;;;2.77;2.57;;;16.10;63.30;;;;;;5070155;28;20453;-67
2021/05/03 12:15:27;;;;;;;2.67;2.47;;;16.30;63.30;;;;;;5044458;28;20549;-68
2021/05/03 12:17:54;;;;;;;4.90;2.53;;;16.30;63.90;;;;;;5043949;28;20453;-70
2021/05/03 12:20:25;;;;;;;2.53;2.37;;;16.40;64.10;;;;;;5052487;28;20503;-67
2021/05/03 12:22:57;;;;;;;2.43;2.23;;;16.40;63.10;;;;;;5052531;28;20473;-68
2021/05/03 12:25:24;;;;;;;2.13;2.03;;;16.50;64.50;;;;;;5069306;28;20820;-68
2021/05/03 12:27:50;;;;;;;2.80;2.60;;;16.60;62.50;;;;;;5051067;28;20488;-67
2021/05/03 12:30:16;;;;;;;2.53;2.33;;;16.60;61.70;;;;;;5033750;28;20505;-68
2021/05/03 12:32:45;;;;;;;2.10;1.90;;;16.70;62.80;;;;;;5031887;28;20450;-69
2021/05/03 12:35:20;;;;;;;2.80;2.13;;;16.80;63.00;;;;;;5027375;28;20449;-69
2021/05/03 12:37:45;;;;;;;2.63;2.43;;;16.80;63.30;;;;;;5003514;28;20506;-71
2021/05/03 12:40:15;;;;;;;3.30;2.43;;;16.90;63.40;;;;;;5033951;28;20469;-71
2021/05/03 12:42:43;;;;;;;4.70;3.10;;;16.90;61.80;;;;;;5036162;28;20239;-70
2021/05/03 12:51:31;;;;;;;2.70;2.50;;;16.90;61.80;;;;;;5049476;28;20996;-69
2021/05/03 13:00:05;;;;;;;5.53;2.67;;;17.20;59.90;;;;;;5064913;28;20450;-72
2021/05/03 13:05:34;;;;;;;5.23;3.00;;;17.50;61.00;;;;;;5074351;28;20458;-69
2021/05/03 13:10:58;;;;;;;2.97;2.77;;;17.70;60.00;;;;;;5051142;28;20473;-69
2021/05/03 13:30:20;;;;;;;2.73;2.47;;;18.20;59.50;;;;;;5068167;28;20493;-68
2021/05/03 13:32:46;;;;;;;3.00;2.43;;;18.20;59.20;;;;;;5033852;28;20450;-69
2021/05/03 13:35:45;;;;;;;3.00;2.80;;;18.10;58.60;;;;;;5014447;28;20457;-68
2021/05/03 13:38:11;;;;;;;2.80;2.60;;;18.00;58.20;;;;;;5066962;28;20230;-67
2021/05/03 13:40:39;;;;;;;2.53;2.33;;;17.90;58.50;;;;;;5067136;28;20441;-68
2021/05/03 13:43:04;;;;;;;3.03;2.83;;;18.00;58.80;;;;;;5001505;28;20234;-67
2021/05/03 13:45:30;;;;;;;3.03;2.83;;;18.00;58.50;;;;;;5034064;28;20964;-69
2021/05/03 13:47:56;;;;;;;2.47;2.33;;;18.10;59.00;;;;;;5068797;28;20268;-67
2021/05/03 13:50:22;;;;;;;2.83;2.63;;;18.10;58.50;;;;;;5034253;28;22516;-67
2021/05/03 13:52:49;;;;;;;3.27;3.00;;;18.10;58.40;;;;;;5025275;28;20776;-67
2021/05/03 13:55:15;;;;;;;3.03;2.77;;;18.10;58.00;;;;;;5030492;28;20557;-67
2021/05/03 13:57:40;;;;;;;5.70;3.50;;;18.00;57.70;;;;;;5046374;28;20553;-67
2021/05/03 14:00:08;;;;;;;3.10;2.80;;;18.00;57.90;;;;;;5028986;28;20249;-69
2021/05/03 14:02:41;;;;;;;2.90;2.70;;;17.90;57.80;;;;;;5033151;28;20238;-67
2021/05/03 14:05:07;;;;;;;3.20;2.90;;;17.90;58.00;;;;;;5017110;28;20969;-67
2021/05/03 14:07:32;;;;;;;2.70;2.40;;;17.80;58.00;;;;;;5034072;28;20212;-67
2021/05/03 14:09:58;;;;;;;2.27;2.07;;;17.70;57.40;;;;;;5017347;28;20845;-67
2021/05/03 14:12:24;;;;;;;2.70;2.50;;;17.70;57.70;;;;;;5067075;28;20216;-68